createdAt,value
2018-12-21T09:57:54.895Z,181
2018-12-21T09:57:58.487Z,180
2018-12-21T10:05:06.579Z,260
2018-12-21T10:05:09.974Z,260
2018-12-21T10:05:14.661Z,261
2018-12-21T10:05:17.787Z,258
2018-12-21T10:05:21.212Z,260
2018-12-21T10:05:24.625Z,261
2018-12-21T10:05:28.097Z,262
2018-12-21T10:05:31.467Z,260
2018-12-21T10:05:34.914Z,260
2018-12-21T10:05:39.361Z,261
2018-12-21T10:05:42.763Z,255
2018-12-21T10:05:46.178Z,255
2018-12-21T10:05:49.596Z,254
2018-12-21T10:05:53.000Z,257
2018-12-21T10:05:56.415Z,260
2018-12-21T10:06:00.816Z,259
2018-12-21T10:06:04.256Z,257
2018-12-21T10:06:07.669Z,258
2018-12-21T10:06:11.101Z,258
2018-12-21T10:06:14.498Z,257
2018-12-21T10:06:17.948Z,256
2018-12-21T10:06:21.450Z,257
2018-12-21T10:06:24.930Z,258
2018-12-21T10:06:28.379Z,258
2018-12-21T10:06:31.807Z,257
2018-12-21T10:06:35.296Z,265
2018-12-21T10:06:38.781Z,0
2018-12-21T10:06:42.223Z,1663
2018-12-21T10:06:45.659Z,1559
2018-12-21T10:06:49.118Z,1651
2018-12-21T10:06:52.532Z,1507
2018-12-21T10:06:56.008Z,1630
2018-12-21T10:06:59.448Z,1586
2018-12-21T10:07:02.933Z,1504
2018-12-21T10:07:06.401Z,1372
2018-12-21T10:07:09.918Z,1483
2018-12-21T10:07:13.351Z,1475
2018-12-21T10:07:16.834Z,1515
2018-12-21T10:07:27.461Z,1502
2018-12-21T10:07:27.937Z,1410
2018-12-21T10:07:31.152Z,1406
2018-12-21T10:07:34.645Z,2870
2018-12-21T10:07:38.140Z,379
2018-12-21T10:07:41.623Z,373
2018-12-21T10:07:45.077Z,364
2018-12-21T10:07:48.647Z,361
2018-12-21T10:07:52.133Z,362
2018-12-21T10:07:55.671Z,368
2018-12-21T10:07:59.166Z,357
2018-12-21T10:08:02.738Z,366
2018-12-21T10:08:06.247Z,358
2018-12-21T10:08:09.721Z,352
2018-12-21T10:08:13.325Z,352
2018-12-21T10:08:16.784Z,352
2018-12-21T10:08:20.276Z,355
2018-12-21T10:08:23.757Z,337
2018-12-21T10:08:27.185Z,354
2018-12-21T10:08:30.665Z,344
2018-12-21T10:08:34.092Z,343
2018-12-21T10:08:37.554Z,355
2018-12-21T10:08:41.032Z,355
2018-12-21T10:08:44.547Z,356
2018-12-21T10:08:47.970Z,367
2018-12-21T10:08:51.436Z,356
2018-12-21T10:08:54.883Z,355
2018-12-21T10:08:58.336Z,356
2018-12-21T10:09:01.783Z,360
2018-12-21T10:09:06.208Z,352
2018-12-21T10:09:09.627Z,342
2018-12-21T10:09:13.033Z,343
2018-12-21T10:09:16.437Z,344
2018-12-21T10:09:19.894Z,343
2018-12-21T10:09:23.309Z,361
2018-12-21T10:09:26.730Z,356
2018-12-21T10:09:30.177Z,347
2018-12-21T10:09:33.584Z,361
2018-12-21T10:09:37.011Z,356
2018-12-21T10:09:41.442Z,353
2018-12-21T10:09:44.860Z,351
2018-12-21T10:09:48.265Z,351
2018-12-21T10:09:51.803Z,353
2018-12-21T10:09:55.217Z,364
2018-12-21T10:09:58.638Z,357
2018-12-21T10:10:02.049Z,359
2018-12-21T10:10:05.450Z,338
2018-12-21T10:10:08.867Z,338
2018-12-21T10:10:12.298Z,338
2018-12-21T10:10:15.699Z,340
2018-12-21T10:10:19.118Z,340
2018-12-21T10:10:22.646Z,347
2018-12-21T10:10:26.052Z,347
2018-12-21T10:10:29.484Z,350
2018-12-21T10:10:32.898Z,349
2018-12-21T10:10:36.401Z,349
2018-12-21T10:10:39.797Z,347
2018-12-21T10:10:43.225Z,346
2018-12-21T10:10:46.665Z,346
2018-12-21T10:10:51.069Z,352
2018-12-21T10:10:54.478Z,339
2018-12-21T10:10:57.917Z,344
2018-12-21T10:11:01.333Z,343
2018-12-21T10:11:04.741Z,341
2018-12-21T10:11:08.175Z,349
2018-12-21T10:11:12.577Z,347
2018-12-21T10:11:15.990Z,348
2018-12-21T10:11:19.412Z,348
2018-12-21T10:11:22.845Z,356
2018-12-21T10:11:26.284Z,350
2018-12-21T10:11:29.709Z,346
2018-12-21T10:11:33.128Z,346
2018-12-21T10:11:36.542Z,346
2018-12-21T10:11:39.966Z,344
2018-12-21T10:11:43.378Z,344
2018-12-21T10:11:46.815Z,355
2018-12-21T10:11:50.246Z,343
2018-12-21T10:11:53.675Z,348
2018-12-21T10:11:57.100Z,349
2018-12-21T10:12:00.507Z,349
2018-12-21T10:12:03.915Z,345
2018-12-21T10:12:07.345Z,348
2018-12-21T10:12:10.760Z,347
2018-12-21T10:12:14.192Z,347
2018-12-21T10:12:17.603Z,347
2018-12-21T10:12:21.021Z,346
2018-12-21T10:12:24.488Z,347
2018-12-21T10:12:27.935Z,347
2018-12-21T10:12:31.365Z,349
2018-12-21T10:12:34.816Z,348
2018-12-21T10:12:38.218Z,346
2018-12-21T10:12:41.638Z,347
2018-12-21T10:12:45.028Z,346
2018-12-21T10:12:53.293Z,347
2018-12-21T10:12:54.831Z,341
2018-12-21T10:12:58.224Z,349
2018-12-21T10:13:01.750Z,347
2018-12-21T10:13:05.167Z,352
2018-12-21T10:13:09.582Z,351
2018-12-21T10:13:13.049Z,351
2018-12-21T10:13:16.399Z,349
2018-12-21T10:13:20.821Z,343
2018-12-21T10:13:24.250Z,351
2018-12-21T10:13:27.656Z,354
2018-12-21T10:13:31.074Z,345
2018-12-21T10:13:34.476Z,339
2018-12-21T10:13:37.890Z,353
2018-12-21T10:13:41.305Z,346
2018-12-21T10:13:44.782Z,334
2018-12-21T10:13:48.223Z,337
2018-12-21T10:13:51.631Z,293
